createdAt,value
2023-04-26T00:00:02.253Z,8.95
2023-04-26T00:02:33.196Z,9.07
2023-04-26T00:05:02.511Z,8.99
2023-04-26T00:07:30.970Z,9.26
2023-04-26T00:09:58.845Z,9.16
2023-04-26T00:12:27.285Z,9.03
2023-04-26T00:14:55.190Z,9.07
2023-04-26T00:17:25.154Z,9.28
2023-04-26T00:19:53.605Z,8.91
2023-04-26T00:22:21.444Z,8.73
2023-04-26T00:24:49.688Z,8.70
2023-04-26T00:27:18.069Z,8.74
2023-04-26T00:29:46.223Z,8.97
2023-04-26T00:32:14.851Z,9.08
2023-04-26T00:34:43.108Z,8.97
2023-04-26T00:37:11.006Z,9.22
2023-04-26T00:39:38.949Z,8.91
2023-04-26T00:42:07.369Z,9.08
2023-04-26T00:44:35.326Z,9.13
2023-04-26T00:47:03.426Z,9.04
2023-04-26T00:49:31.674Z,9.12
2023-04-26T00:51:59.722Z,8.96
2023-04-26T00:54:27.558Z,9.25
2023-04-26T00:56:56.019Z,9.01
2023-04-26T00:59:23.976Z,8.89
2023-04-26T01:01:52.046Z,8.69
2023-04-26T01:04:20.550Z,8.69
2023-04-26T01:06:48.899Z,8.60
2023-04-26T01:09:19.115Z,8.48
2023-04-26T01:11:47.387Z,8.56
2023-04-26T01:14:16.492Z,8.32
2023-04-26T01:16:47.017Z,8.45
2023-04-26T01:19:15.510Z,8.61
2023-04-26T01:21:43.521Z,8.48
2023-04-26T01:24:12.483Z,8.46
2023-04-26T01:26:46.026Z,8.67
2023-04-26T01:29:18.592Z,8.53
2023-04-26T01:31:47.761Z,8.36
2023-04-26T01:34:16.345Z,8.18
2023-04-26T01:36:46.904Z,8.05
2023-04-26T01:39:16.047Z,8.02
2023-04-26T01:41:43.948Z,7.88
2023-04-26T01:44:12.053Z,7.77
2023-04-26T01:46:40.388Z,8.13
2023-04-26T01:49:08.371Z,7.97
2023-04-26T01:51:36.504Z,7.57
2023-04-26T01:54:08.000Z,7.63
2023-04-26T01:56:35.920Z,7.70
2023-04-26T01:59:04.239Z,7.71
2023-04-26T02:01:32.765Z,7.59
2023-04-26T02:04:01.036Z,7.68
2023-04-26T02:06:28.959Z,7.51
2023-04-26T02:08:57.175Z,7.54
2023-04-26T02:11:27.170Z,7.36
2023-04-26T02:13:55.154Z,7.55
2023-04-26T02:16:23.210Z,7.71
2023-04-26T02:18:53.864Z,7.70
2023-04-26T02:21:22.656Z,7.44
2023-04-26T02:23:50.584Z,7.76
2023-04-26T02:26:18.864Z,7.93
2023-04-26T02:28:47.060Z,7.74
2023-04-26T02:31:15.260Z,7.65
2023-04-26T02:33:43.450Z,7.50
2023-04-26T02:36:12.602Z,7.76
2023-04-26T02:38:41.228Z,7.97
2023-04-26T02:41:09.248Z,7.57
2023-04-26T02:43:37.996Z,7.30
2023-04-26T02:46:08.325Z,7.31
2023-04-26T02:48:36.225Z,7.47
2023-04-26T02:51:04.657Z,7.18
2023-04-26T02:53:32.629Z,7.33
2023-04-26T02:56:01.171Z,7.26
2023-04-26T02:58:29.527Z,7.33
2023-04-26T03:01:01.065Z,7.33
2023-04-26T03:03:31.286Z,7.50
2023-04-26T03:05:59.439Z,7.31
2023-04-26T03:08:27.306Z,7.22
2023-04-26T03:10:55.603Z,7.33
2023-04-26T03:13:24.937Z,7.45
2023-04-26T03:15:53.888Z,7.25
2023-04-26T03:18:22.670Z,7.20
2023-04-26T03:20:50.804Z,7.04
2023-04-26T03:23:18.701Z,7.55
2023-04-26T03:25:47.177Z,7.25
2023-04-26T03:28:15.076Z,7.18
2023-04-26T03:30:43.041Z,6.98
2023-04-26T03:33:11.346Z,7.12
2023-04-26T03:35:39.425Z,7.15
2023-04-26T03:38:07.493Z,6.92
2023-04-26T03:40:35.852Z,7.03
2023-04-26T03:43:03.955Z,7.01
2023-04-26T03:45:31.857Z,6.85
2023-04-26T03:48:00.334Z,6.82
2023-04-26T03:50:28.251Z,6.95
2023-04-26T03:52:56.706Z,7.08
2023-04-26T03:55:24.986Z,7.11
2023-04-26T03:57:54.144Z,6.93
2023-04-26T04:00:23.698Z,7.02
2023-04-26T04:02:52.326Z,7.05
2023-04-26T04:05:21.818Z,7.05
2023-04-26T04:07:50.243Z,7.02
2023-04-26T04:10:18.651Z,7.12
2023-04-26T04:12:46.820Z,7.23
2023-04-26T04:15:14.849Z,6.92
2023-04-26T04:17:44.306Z,7.45
2023-04-26T04:20:12.863Z,8.21
2023-04-26T04:22:41.194Z,8.79
2023-04-26T04:25:14.337Z,9.38
2023-04-26T04:27:42.843Z,9.13
2023-04-26T04:30:12.582Z,9.73
2023-04-26T04:32:42.577Z,10.02
2023-04-26T04:35:10.897Z,9.48
2023-04-26T04:37:39.138Z,9.30
2023-04-26T04:40:11.565Z,9.00
2023-04-26T04:42:41.223Z,9.35
2023-04-26T04:45:10.339Z,9.47
2023-04-26T04:47:40.084Z,9.61
2023-04-26T04:50:08.677Z,9.77
2023-04-26T04:52:37.541Z,9.16
2023-04-26T04:55:05.866Z,9.21
2023-04-26T04:57:34.441Z,9.56
2023-04-26T05:00:10.193Z,10.77
2023-04-26T05:02:39.589Z,10.88
2023-04-26T05:05:08.281Z,11.62
2023-04-26T05:07:36.255Z,11.30
2023-04-26T05:10:04.848Z,11.14
2023-04-26T05:12:33.664Z,10.95
2023-04-26T05:15:01.897Z,10.34
2023-04-26T05:17:32.954Z,10.29
2023-04-26T05:20:08.271Z,10.09
2023-04-26T05:22:37.104Z,10.31
2023-04-26T05:25:05.857Z,10.04
2023-04-26T05:27:33.734Z,10.15
2023-04-26T05:30:06.420Z,9.63
2023-04-26T05:32:34.475Z,10.91
2023-04-26T05:35:02.896Z,11.11
2023-04-26T05:37:32.001Z,10.75
2023-04-26T05:40:00.100Z,10.31
2023-04-26T05:42:28.045Z,10.30
2023-04-26T05:44:59.943Z,10.52
2023-04-26T05:47:28.435Z,10.09
2023-04-26T05:49:56.805Z,10.74
2023-04-26T05:52:24.836Z,11.23
2023-04-26T05:54:53.143Z,11.63
2023-04-26T05:57:21.438Z,11.77
2023-04-26T05:59:49.492Z,12.27
2023-04-26T06:02:17.819Z,12.10
2023-04-26T06:04:46.597Z,12.28
2023-04-26T06:07:17.560Z,12.67
2023-04-26T06:09:47.520Z,13.00
2023-04-26T06:12:17.194Z,12.57
2023-04-26T06:14:45.208Z,12.47
2023-04-26T06:17:14.458Z,11.84
2023-04-26T06:19:43.721Z,12.30
2023-04-26T06:22:11.585Z,12.28
2023-04-26T06:24:39.685Z,12.95
2023-04-26T06:27:08.072Z,12.55
2023-04-26T06:29:36.337Z,13.31
2023-04-26T06:32:04.315Z,12.65
2023-04-26T06:34:33.683Z,12.67
2023-04-26T06:37:01.603Z,12.39
2023-04-26T06:39:29.712Z,12.27
2023-04-26T06:41:57.964Z,11.56
2023-04-26T06:44:26.011Z,12.28
2023-04-26T06:46:57.870Z,11.58
2023-04-26T06:49:26.962Z,12.38
2023-04-26T06:51:54.925Z,12.20
2023-04-26T06:54:22.947Z,12.17
2023-04-26T06:56:51.326Z,11.58
2023-04-26T06:59:19.236Z,11.89
2023-04-26T07:01:47.222Z,11.84
2023-04-26T07:04:17.337Z,12.63
2023-04-26T07:06:45.428Z,12.93
2023-04-26T07:09:13.476Z,13.15
2023-04-26T07:11:41.896Z,12.59
2023-04-26T07:14:12.073Z,12.70
2023-04-26T07:16:39.960Z,12.61
2023-04-26T07:19:08.314Z,12.81
2023-04-26T07:21:36.310Z,12.82
2023-04-26T07:24:04.793Z,13.08
2023-04-26T07:26:33.200Z,12.87
2023-04-26T07:29:01.348Z,12.86
2023-04-26T07:31:29.323Z,12.48
2023-04-26T07:33:57.729Z,12.72
2023-04-26T07:36:25.884Z,13.16
2023-04-26T07:38:53.730Z,13.01
2023-04-26T07:41:21.947Z,13.80
2023-04-26T07:43:50.287Z,13.69
2023-04-26T07:46:18.748Z,13.65
2023-04-26T07:48:47.247Z,13.70
2023-04-26T07:51:15.235Z,13.29
2023-04-26T07:53:43.147Z,13.98
2023-04-26T07:56:11.728Z,13.69
2023-04-26T07:58:39.891Z,14.09
2023-04-26T08:01:08.045Z,13.87
2023-04-26T08:03:36.634Z,13.49
2023-04-26T08:06:05.029Z,13.97
2023-04-26T08:08:33.795Z,14.20
2023-04-26T08:11:02.122Z,14.16
2023-04-26T08:13:30.326Z,14.43
2023-04-26T08:15:58.357Z,14.62
2023-04-26T08:18:26.634Z,14.84
2023-04-26T08:20:57.629Z,15.15
2023-04-26T08:23:25.605Z,15.67
2023-04-26T08:25:53.918Z,15.21
2023-04-26T08:28:22.117Z,15.13
2023-04-26T08:30:50.042Z,15.26
2023-04-26T08:33:18.520Z,15.30
2023-04-26T08:35:46.780Z,14.48
2023-04-26T08:38:14.737Z,14.52
2023-04-26T08:40:44.267Z,13.98
2023-04-26T08:43:12.350Z,14.41
2023-04-26T08:45:41.672Z,14.57
2023-04-26T08:48:15.132Z,13.94
2023-04-26T08:50:46.917Z,14.27
2023-04-26T08:53:18.082Z,14.62
2023-04-26T08:55:49.732Z,15.36
2023-04-26T08:58:19.368Z,15.39
2023-04-26T09:00:48.200Z,15.08
2023-04-26T09:03:16.354Z,15.34
2023-04-26T09:05:45.571Z,15.99
2023-04-26T09:08:17.604Z,15.32
2023-04-26T09:10:46.243Z,15.67
2023-04-26T09:13:14.695Z,15.44
2023-04-26T09:15:42.755Z,15.50
2023-04-26T09:18:18.469Z,14.38
2023-04-26T09:20:46.798Z,15.12
2023-04-26T09:23:17.320Z,15.77
2023-04-26T09:25:45.301Z,15.68
2023-04-26T09:28:24.450Z,15.29
2023-04-26T09:30:52.880Z,16.71
2023-04-26T09:33:21.728Z,16.22
2023-04-26T09:35:49.730Z,16.28
2023-04-26T09:38:18.886Z,16.36
2023-04-26T09:40:47.648Z,16.03
2023-04-26T09:43:17.796Z,15.45
2023-04-26T09:45:52.830Z,14.91
2023-04-26T09:48:26.296Z,15.53
2023-04-26T09:50:56.748Z,15.76
2023-04-26T09:53:34.543Z,14.44
2023-04-26T09:56:10.676Z,15.45
2023-04-26T09:58:40.736Z,15.05
2023-04-26T10:01:09.590Z,15.23
2023-04-26T10:03:38.766Z,14.87
2023-04-26T10:06:07.480Z,14.07
2023-04-26T10:08:36.784Z,14.06
2023-04-26T10:11:07.815Z,15.14
2023-04-26T10:13:35.897Z,15.79
2023-04-26T10:16:05.056Z,14.41
2023-04-26T10:18:33.942Z,13.78
2023-04-26T10:21:23.281Z,13.96
2023-04-26T10:23:51.782Z,13.76
2023-04-26T10:26:55.048Z,13.60
2023-04-26T10:29:54.948Z,14.31
2023-04-26T10:32:24.218Z,15.22
2023-04-26T10:35:14.555Z,14.58
2023-04-26T10:38:02.492Z,13.37
2023-04-26T10:40:41.582Z,13.23
2023-04-26T10:43:10.141Z,13.35
2023-04-26T10:45:39.754Z,14.32
2023-04-26T10:48:31.691Z,14.14
2023-04-26T10:51:02.914Z,13.75
2023-04-26T10:53:33.304Z,13.32
2023-04-26T10:56:01.793Z,14.42
2023-04-26T10:58:35.494Z,13.45
2023-04-26T11:01:07.503Z,13.70
2023-04-26T11:03:36.271Z,14.59
2023-04-26T11:06:09.939Z,13.24
2023-04-26T11:08:37.956Z,14.32
2023-04-26T11:11:13.627Z,13.60
2023-04-26T11:13:43.814Z,14.39
2023-04-26T11:16:13.636Z,14.30
2023-04-26T11:18:46.397Z,15.67
2023-04-26T11:21:18.362Z,17.20
2023-04-26T11:23:56.156Z,16.18
2023-04-26T11:26:33.247Z,15.11
2023-04-26T11:29:01.605Z,14.07
2023-04-26T11:31:31.151Z,14.32
2023-04-26T11:34:05.708Z,15.10
2023-04-26T11:36:37.283Z,15.25
2023-04-26T11:39:05.222Z,16.01
2023-04-26T11:41:33.572Z,15.96
2023-04-26T11:44:01.578Z,16.47
2023-04-26T11:46:29.874Z,15.27
2023-04-26T11:48:58.559Z,14.76
2023-04-26T11:51:27.115Z,14.75
2023-04-26T11:53:55.067Z,14.77
2023-04-26T11:56:23.377Z,14.98
2023-04-26T11:58:52.930Z,14.13
2023-04-26T12:01:26.726Z,14.14
2023-04-26T12:03:59.929Z,13.77
2023-04-26T12:06:45.091Z,13.50
2023-04-26T12:09:13.867Z,13.01
2023-04-26T12:11:42.003Z,13.21
2023-04-26T12:14:10.431Z,13.26
2023-04-26T12:16:38.994Z,13.88
2023-04-26T12:19:08.382Z,14.83
2023-04-26T12:21:43.586Z,16.04
2023-04-26T12:24:26.190Z,16.40
2023-04-26T12:26:54.113Z,16.20
2023-04-26T12:29:22.799Z,15.70
2023-04-26T12:31:50.846Z,15.10
2023-04-26T12:34:18.803Z,13.94
2023-04-26T12:36:47.286Z,13.43
2023-04-26T12:39:16.017Z,13.13
2023-04-26T12:41:44.828Z,12.93
2023-04-26T12:44:14.583Z,12.54
2023-04-26T12:46:42.817Z,12.38
2023-04-26T12:49:10.852Z,12.97
2023-04-26T12:51:39.280Z,13.95
2023-04-26T12:54:07.346Z,14.18
2023-04-26T12:56:38.171Z,13.62
2023-04-26T12:59:06.934Z,12.81
2023-04-26T13:01:35.260Z,12.89
2023-04-26T13:04:05.965Z,13.93
2023-04-26T13:06:36.378Z,13.76
2023-04-26T13:09:04.700Z,13.97
2023-04-26T13:11:33.234Z,13.51
2023-04-26T13:14:04.688Z,13.27
2023-04-26T13:16:33.779Z,13.73
2023-04-26T13:19:02.166Z,13.57
2023-04-26T13:21:30.355Z,13.58
2023-04-26T13:23:58.581Z,14.19
2023-04-26T13:26:28.077Z,14.45
2023-04-26T13:28:56.365Z,15.28
2023-04-26T13:31:25.138Z,14.64
2023-04-26T13:33:53.559Z,14.45
2023-04-26T13:36:21.613Z,13.87
2023-04-26T13:38:49.788Z,13.56
2023-04-26T13:41:18.172Z,14.01
2023-04-26T13:43:46.141Z,13.84
2023-04-26T13:46:14.143Z,14.49
2023-04-26T13:48:43.839Z,15.06
2023-04-26T13:51:12.336Z,15.18
2023-04-26T13:53:40.440Z,14.92
2023-04-26T13:56:09.778Z,14.98
2023-04-26T13:58:37.704Z,14.85
2023-04-26T14:01:05.803Z,14.42
2023-04-26T14:03:35.303Z,13.99
2023-04-26T14:06:03.814Z,13.58
2023-04-26T14:08:32.256Z,13.17
2023-04-26T14:11:00.728Z,12.49
2023-04-26T14:13:29.203Z,12.44
2023-04-26T14:15:57.192Z,12.32
2023-04-26T14:18:25.634Z,12.39
2023-04-26T14:20:53.694Z,11.97
2023-04-26T14:23:21.774Z,12.08
2023-04-26T14:25:54.052Z,12.37
2023-04-26T14:28:21.995Z,12.42
2023-04-26T14:30:50.306Z,12.54
2023-04-26T14:33:18.376Z,12.31
2023-04-26T14:35:46.505Z,12.92
2023-04-26T14:38:15.015Z,13.41
2023-04-26T14:40:43.030Z,12.97
2023-04-26T14:43:11.099Z,12.24
2023-04-26T14:45:44.554Z,12.26
2023-04-26T14:48:12.986Z,12.18
2023-04-26T14:50:41.877Z,12.17
2023-04-26T14:53:10.545Z,12.27
2023-04-26T14:55:38.479Z,12.83
2023-04-26T14:58:06.812Z,13.07
2023-04-26T15:00:34.741Z,13.60
2023-04-26T15:03:02.827Z,12.92
2023-04-26T15:05:33.393Z,13.67
2023-04-26T15:08:01.422Z,12.46
2023-04-26T15:10:29.334Z,12.08
2023-04-26T15:12:57.629Z,11.82
2023-04-26T15:15:26.238Z,12.00
2023-04-26T15:17:54.329Z,12.20
2023-04-26T15:20:22.724Z,11.56
2023-04-26T15:22:50.958Z,11.42
2023-04-26T15:25:18.972Z,11.37
2023-04-26T15:27:50.440Z,10.99
2023-04-26T15:30:18.333Z,11.43
2023-04-26T15:32:50.556Z,11.14
2023-04-26T15:35:18.963Z,11.22
2023-04-26T15:37:48.054Z,11.26
2023-04-26T15:40:16.016Z,11.37
2023-04-26T15:42:44.337Z,11.09
2023-04-26T15:45:12.328Z,11.27
2023-04-26T15:47:40.294Z,11.27
2023-04-26T15:50:09.400Z,11.45
2023-04-26T15:52:39.253Z,11.57
2023-04-26T15:55:08.273Z,11.43
2023-04-26T15:57:36.620Z,11.55
2023-04-26T16:00:08.511Z,11.45
2023-04-26T16:02:37.428Z,11.27
2023-04-26T16:05:08.406Z,11.24
2023-04-26T16:07:38.991Z,11.29
2023-04-26T16:10:09.323Z,11.04
2023-04-26T16:12:41.738Z,11.07
2023-04-26T16:15:10.203Z,11.15
2023-04-26T16:17:39.279Z,11.23
2023-04-26T16:20:08.392Z,11.60
2023-04-26T16:22:36.802Z,11.72
2023-04-26T16:25:07.240Z,11.48
2023-04-26T16:27:35.665Z,11.41
2023-04-26T16:30:04.162Z,11.47
2023-04-26T16:32:32.673Z,11.18
2023-04-26T16:35:01.035Z,11.09
2023-04-26T16:37:28.964Z,11.18
2023-04-26T16:39:57.425Z,10.96
2023-04-26T16:42:25.360Z,11.19
2023-04-26T16:44:55.051Z,11.28
2023-04-26T16:47:23.294Z,11.63
2023-04-26T16:49:51.633Z,11.55
2023-04-26T16:52:19.563Z,11.75
2023-04-26T16:54:47.890Z,11.44
2023-04-26T16:57:15.813Z,11.92
2023-04-26T16:59:43.632Z,11.81
2023-04-26T17:02:13.297Z,11.39
2023-04-26T17:04:42.220Z,11.50
2023-04-26T17:07:11.057Z,11.27
2023-04-26T17:09:39.956Z,11.34
2023-04-26T17:12:08.196Z,11.25
2023-04-26T17:14:36.089Z,11.00
2023-04-26T17:17:04.309Z,11.32
2023-04-26T17:19:32.589Z,10.74
2023-04-26T17:22:00.579Z,10.88
2023-04-26T17:24:28.997Z,10.78
2023-04-26T17:26:56.915Z,10.58
2023-04-26T17:29:24.843Z,10.24
2023-04-26T17:31:53.129Z,10.02
2023-04-26T17:34:21.140Z,9.89
2023-04-26T17:36:49.022Z,9.92
2023-04-26T17:39:17.676Z,9.92
2023-04-26T17:41:45.638Z,10.15
2023-04-26T17:44:13.677Z,9.66
2023-04-26T17:46:41.935Z,9.63
2023-04-26T17:49:09.855Z,9.22
2023-04-26T17:51:37.853Z,9.37
2023-04-26T17:54:06.549Z,8.98
2023-04-26T17:56:34.416Z,8.80
2023-04-26T17:59:03.782Z,8.96
2023-04-26T18:01:32.203Z,8.72
2023-04-26T18:04:00.575Z,8.57
2023-04-26T18:06:28.769Z,8.80
2023-04-26T18:08:56.695Z,8.60
2023-04-26T18:11:25.321Z,8.51
2023-04-26T18:13:53.219Z,8.26
2023-04-26T18:16:21.088Z,8.57
2023-04-26T18:18:49.400Z,8.03
2023-04-26T18:21:17.285Z,7.85
2023-04-26T18:23:47.253Z,8.01
2023-04-26T18:26:15.561Z,7.70
2023-04-26T18:28:45.074Z,7.74
2023-04-26T18:31:13.204Z,7.92
2023-04-26T18:33:41.502Z,7.63
2023-04-26T18:36:09.527Z,7.77
2023-04-26T18:38:37.396Z,8.00
2023-04-26T18:41:05.765Z,7.44
2023-04-26T18:43:33.673Z,7.61
2023-04-26T18:46:01.824Z,7.89
2023-04-26T18:48:30.178Z,7.56
2023-04-26T18:50:58.045Z,7.50
2023-04-26T18:53:25.983Z,7.44
2023-04-26T18:55:54.274Z,7.34
2023-04-26T18:58:22.117Z,7.33
2023-04-26T19:00:50.300Z,7.20
2023-04-26T19:03:18.759Z,7.41
2023-04-26T19:05:46.921Z,7.25
2023-04-26T19:08:14.780Z,7.28
2023-04-26T19:10:43.005Z,7.33
2023-04-26T19:13:11.133Z,7.17
2023-04-26T19:15:38.976Z,6.78
2023-04-26T19:18:07.567Z,6.68
2023-04-26T19:20:35.496Z,6.88
2023-04-26T19:23:03.373Z,6.70
2023-04-26T19:25:31.771Z,6.41
2023-04-26T19:27:59.744Z,6.37
2023-04-26T19:30:27.633Z,6.36
2023-04-26T19:32:57.393Z,6.25
2023-04-26T19:35:25.678Z,6.59
2023-04-26T19:37:53.628Z,6.87
2023-04-26T19:40:21.802Z,7.20
2023-04-26T19:42:49.736Z,7.21
2023-04-26T19:45:20.634Z,7.42
2023-04-26T19:47:48.899Z,7.96
2023-04-26T19:50:16.905Z,7.49
2023-04-26T19:52:45.059Z,7.57
2023-04-26T19:55:15.112Z,7.56
2023-04-26T19:57:42.934Z,7.50
2023-04-26T20:00:12.014Z,7.06
2023-04-26T20:02:40.410Z,7.33
2023-04-26T20:05:09.531Z,7.44
2023-04-26T20:07:37.545Z,7.46
2023-04-26T20:10:06.506Z,7.16
2023-04-26T20:12:34.603Z,7.09
2023-04-26T20:15:02.852Z,7.12
2023-04-26T20:17:31.146Z,6.76
2023-04-26T20:19:59.055Z,6.72
2023-04-26T20:22:26.993Z,6.77
2023-04-26T20:24:55.278Z,6.49
2023-04-26T20:27:23.169Z,6.68
2023-04-26T20:29:51.210Z,6.79
2023-04-26T20:32:19.690Z,6.70
2023-04-26T20:34:47.853Z,6.60
2023-04-26T20:37:15.781Z,6.77
2023-04-26T20:39:44.103Z,6.70
2023-04-26T20:42:12.011Z,6.89
2023-04-26T20:44:39.901Z,7.45
2023-04-26T20:47:08.393Z,7.13
2023-04-26T20:49:36.360Z,6.78
2023-04-26T20:52:04.621Z,6.21
2023-04-26T20:54:32.925Z,6.43
2023-04-26T20:57:01.807Z,6.11
2023-04-26T20:59:29.675Z,5.72
2023-04-26T21:01:58.077Z,6.11
2023-04-26T21:04:26.374Z,5.99
2023-04-26T21:06:54.369Z,5.79
2023-04-26T21:09:22.625Z,6.30
2023-04-26T21:11:50.718Z,5.85
2023-04-26T21:14:18.588Z,5.38
2023-04-26T21:16:47.220Z,4.88
2023-04-26T21:19:15.085Z,4.15
2023-04-26T21:21:42.974Z,4.20
2023-04-26T21:24:11.345Z,3.99
2023-04-26T21:26:39.405Z,3.57
2023-04-26T21:29:07.913Z,3.29
2023-04-26T21:31:36.617Z,3.25
2023-04-26T21:34:04.544Z,3.07
2023-04-26T21:36:32.747Z,3.26
2023-04-26T21:39:01.480Z,3.67
2023-04-26T21:41:29.460Z,2.78
2023-04-26T21:43:58.838Z,3.65
2023-04-26T21:46:27.269Z,2.52
2023-04-26T21:48:55.142Z,2.95
2023-04-26T21:51:23.419Z,2.31
2023-04-26T21:53:51.915Z,3.23
2023-04-26T21:56:19.856Z,2.99
2023-04-26T21:58:47.799Z,3.62
2023-04-26T22:01:16.878Z,3.26
2023-04-26T22:03:45.241Z,3.97
2023-04-26T22:06:13.236Z,2.31
2023-04-26T22:08:41.476Z,1.81
2023-04-26T22:11:09.746Z,1.78
2023-04-26T22:13:37.613Z,2.19
2023-04-26T22:16:06.406Z,2.43
2023-04-26T22:18:35.611Z,2.70
2023-04-26T22:21:03.794Z,2.30
2023-04-26T22:23:31.738Z,1.83
2023-04-26T22:26:00.838Z,1.73
2023-04-26T22:28:28.731Z,2.10
2023-04-26T22:30:56.604Z,1.99
2023-04-26T22:33:24.934Z,2.03
2023-04-26T22:35:57.836Z,2.23
2023-04-26T22:38:26.368Z,2.25
2023-04-26T22:40:54.498Z,2.13
2023-04-26T22:43:23.188Z,1.31
2023-04-26T22:45:51.513Z,1.59
2023-04-26T22:48:19.458Z,1.66
2023-04-26T22:50:50.796Z,2.18
2023-04-26T22:53:19.054Z,1.75
2023-04-26T22:55:46.913Z,1.56
2023-04-26T22:58:14.793Z,2.11
2023-04-26T23:00:43.204Z,1.90
2023-04-26T23:03:11.159Z,1.97
2023-04-26T23:05:39.034Z,2.89
2023-04-26T23:08:07.297Z,2.98
2023-04-26T23:10:35.305Z,2.54
2023-04-26T23:13:04.067Z,2.05
2023-04-26T23:15:33.151Z,1.66
2023-04-26T23:18:01.226Z,1.95
2023-04-26T23:20:29.342Z,2.05
2023-04-26T23:22:57.568Z,1.67
2023-04-26T23:25:25.447Z,1.55
2023-04-26T23:27:53.339Z,1.54
2023-04-26T23:30:21.549Z,1.84
2023-04-26T23:32:49.567Z,2.64
2023-04-26T23:35:17.655Z,2.13
2023-04-26T23:37:45.956Z,2.05
2023-04-26T23:40:14.322Z,1.92
2023-04-26T23:42:42.186Z,1.61
2023-04-26T23:45:10.977Z,1.99
2023-04-26T23:47:38.932Z,1.67
2023-04-26T23:50:07.570Z,1.82
2023-04-26T23:52:36.052Z,2.25
2023-04-26T23:55:04.100Z,2.27
2023-04-26T23:57:32.408Z,1.94
